Back to Top

Language: 

My Weather Underground Personal Weather Station Historical Data with Graphs...

Delerius Weather Station Historical Data
Daily Summary for July 12, 2017 Units:  Metric    English   Both
« Previous Day
Next Day »
Daily Weekly Monthly Yearly Custom
  High: Low: Average:
Temperature: 20.7 °C 11.2 °C 15.7 °C
Dew Point: 11.6 °C 8.2 °C 10.3 °C
Humidity: 96 % 48 % 72 %
Wind Speed: 14.5 km/h 0 km/h 6.6 km/h
Wind Gust: 29 km/h - -
Wind:- - SE
Pressure: 1021.9 hPa 1009.4 hPa -
Precipitation: 0 mm    
Historical Graphs
 
 
Tabular Data for July 12, 2017
Time Temperature Dew Point Pressure Wind Wind Speed Wind Gust Humidity Rainfall Rate (Hourly) solar Conditions
00:04 11.9 °C 11.3 °C 1009.4 hPa Calm   6.4 km/h 96 % 0 mm 0 W/m2
00:09 11.9 °C 11.3 °C 1009.4 hPa North 1.6 km/h 11.3 km/h 96 % 0 mm 0 W/m2
00:14 11.9 °C 11.3 °C 1009.4 hPa North 3.2 km/h 11.3 km/h 96 % 0 mm 0 W/m2
00:19 11.9 °C 11.3 °C 1009.4 hPa North 4.8 km/h 11.3 km/h 96 % 0 mm 0 W/m2
00:24 11.8 °C 11.2 °C 1009.4 hPa NNW 6.4 km/h 12.9 km/h 96 % 0 mm 0 W/m2
00:29 11.8 °C 11.2 °C 1009.4 hPa North 6.4 km/h 12.9 km/h 96 % 0 mm 0 W/m2
00:34 11.8 °C 11.2 °C 1009.4 hPa North 6.4 km/h 12.9 km/h 96 % 0 mm 0 W/m2
00:39 11.8 °C 11.2 °C 1009.4 hPa North 4.8 km/h 11.3 km/h 96 % 0 mm 0 W/m2
00:44 11.8 °C 11.2 °C 1009.4 hPa NNW 3.2 km/h 8 km/h 96 % 0 mm 0 W/m2
00:49 11.8 °C 11.2 °C 1009.4 hPa NNW 3.2 km/h 8 km/h 96 % 0 mm 0 W/m2
00:54 11.7 °C 11.1 °C 1009.4 hPa NNW 4.8 km/h 11.3 km/h 96 % 0 mm 0 W/m2
00:59 11.7 °C 11.1 °C 1009.4 hPa NNW 4.8 km/h 12.9 km/h 96 % 0 mm 0 W/m2
01:04 11.8 °C 11.2 °C 1009.4 hPa NNW 4.8 km/h 12.9 km/h 96 % 0 mm 0 W/m2
01:09 11.8 °C 11.2 °C 1009.4 hPa North 6.4 km/h 12.9 km/h 96 % 0 mm 0 W/m2
01:14 11.8 °C 11.2 °C 1009.4 hPa North 4.8 km/h 12.9 km/h 96 % 0 mm 0 W/m2
01:20 11.9 °C 11.3 °C 1009.4 hPa North 6.4 km/h 12.9 km/h 96 % 0 mm 0 W/m2
01:25 11.9 °C 11.3 °C 1009.4 hPa North 6.4 km/h 12.9 km/h 96 % 0 mm 0 W/m2
01:30 11.9 °C 11.3 °C 1009.4 hPa North 4.8 km/h 12.9 km/h 96 % 0 mm 0 W/m2
01:35 11.9 °C 11.3 °C 1009.4 hPa NNE 3.2 km/h 12.9 km/h 96 % 0 mm 0 W/m2
01:40 11.9 °C 11.3 °C 1009.4 hPa NNE 3.2 km/h 12.9 km/h 96 % 0 mm 0 W/m2
01:45 12 °C 11.4 °C 1009.4 hPa NNE 3.2 km/h 12.9 km/h 96 % 0 mm 0 W/m2
01:50 12 °C 11.4 °C 1009.4 hPa NNE 4.8 km/h 14.5 km/h 96 % 0 mm 0 W/m2
01:55 12 °C 11.4 °C 1009.4 hPa NE 3.2 km/h 14.5 km/h 96 % 0 mm 0 W/m2
02:00 12 °C 11.4 °C 1009.4 hPa NNE 4.8 km/h 14.5 km/h 96 % 0 mm 0 W/m2
02:05 12.1 °C 11.5 °C 1009.4 hPa NNE 6.4 km/h 14.5 km/h 96 % 0 mm 0 W/m2
02:10 12.1 °C 11.5 °C 1009.7 hPa NNE 4.8 km/h 12.9 km/h 96 % 0 mm 0 W/m2
02:15 12.1 °C 11.5 °C 1009.7 hPa NNE 4.8 km/h 12.9 km/h 96 % 0 mm 0 W/m2
02:20 12.1 °C 11.5 °C 1009.7 hPa NNE 6.4 km/h 19.3 km/h 96 % 0 mm 0 W/m2
02:25 12.1 °C 11.5 °C 1009.7 hPa NNE 8 km/h 20.9 km/h 96 % 0 mm 0 W/m2
02:30 12.1 °C 11.5 °C 1009.7 hPa NNE 8 km/h 20.9 km/h 96 % 0 mm 0 W/m2
02:35 12.2 °C 11.6 °C 1009.7 hPa NNE 8 km/h 19.3 km/h 96 % 0 mm 0 W/m2
02:40 12.2 °C 11.6 °C 1009.7 hPa NNE 6.4 km/h 12.9 km/h 96 % 0 mm 0 W/m2
02:45 12.2 °C 11.6 °C 1009.7 hPa NNE 6.4 km/h 12.9 km/h 96 % 0 mm 0 W/m2
02:50 12.1 °C 11.5 °C 1009.7 hPa NNE 6.4 km/h 16.1 km/h 96 % 0 mm 0 W/m2
02:55 12.1 °C 11.5 °C 1010 hPa NNE 6.4 km/h 17.7 km/h 96 % 0 mm 0 W/m2
03:00 12.1 °C 11.5 °C 1009.7 hPa NNE 6.4 km/h 17.7 km/h 96 % 0 mm 0 W/m2
03:05 12.1 °C 11.5 °C 1010 hPa North 6.4 km/h 14.5 km/h 96 % 0 mm 0 W/m2
03:10 12.1 °C 11.5 °C 1010 hPa North 6.4 km/h 14.5 km/h 96 % 0 mm 0 W/m2
03:15 12.1 °C 11.5 °C 1010 hPa North 8 km/h 17.7 km/h 96 % 0 mm 0 W/m2
03:20 12.1 °C 11.5 °C 1010 hPa North 6.4 km/h 17.7 km/h 96 % 0 mm 0 W/m2
03:25 12 °C 11.4 °C 1010 hPa North 6.4 km/h 14.5 km/h 96 % 0 mm 0 W/m2
03:30 11.9 °C 11.3 °C 1010 hPa North 6.4 km/h 14.5 km/h 96 % 0 mm 0 W/m2
03:35 11.9 °C 11.3 °C 1010 hPa North 6.4 km/h 12.9 km/h 96 % 0 mm 0 W/m2
03:40 11.9 °C 11.3 °C 1010.4 hPa NNW 4.8 km/h 12.9 km/h 96 % 0 mm 0 W/m2
03:45 11.8 °C 11.2 °C 1010.4 hPa NNW 6.4 km/h 12.9 km/h 96 % 0 mm 0 W/m2
03:50 11.7 °C 11.1 °C 1010.4 hPa North 8 km/h 16.1 km/h 96 % 0 mm 0 W/m2
03:55 11.7 °C 11.1 °C 1010.4 hPa North 9.7 km/h 16.1 km/h 96 % 0 mm 0 W/m2
04:00 11.6 °C 11 °C 1010.4 hPa North 8 km/h 17.7 km/h 96 % 0 mm 0 W/m2
04:05 11.5 °C 10.9 °C 1010.7 hPa NNW 8 km/h 17.7 km/h 96 % 0 mm 0 W/m2
04:10 11.4 °C 10.8 °C 1010.7 hPa North 8 km/h 12.9 km/h 96 % 0 mm 0 W/m2
04:15 11.4 °C 10.8 °C 1010.7 hPa North 8 km/h 17.7 km/h 96 % 0 mm 0 W/m2
04:20 11.3 °C 10.7 °C 1011.1 hPa North 8 km/h 17.7 km/h 96 % 0 mm 0 W/m2
04:25 11.3 °C 10.7 °C 1011.1 hPa North 8 km/h 16.1 km/h 96 % 0 mm 0 W/m2
04:30 11.2 °C 10.6 °C 1011.1 hPa North 6.4 km/h 14.5 km/h 96 % 0 mm 0 W/m2
04:35 11.2 °C 10.6 °C 1011.1 hPa NNW 4.8 km/h 14.5 km/h 96 % 0 mm 0 W/m2
04:40 11.2 °C 10.6 °C 1011.4 hPa North 6.4 km/h 14.5 km/h 96 % 0 mm 0 W/m2
04:45 11.2 °C 10.4 °C 1011.4 hPa North 8 km/h 16.1 km/h 95 % 0 mm 0 W/m2
04:50 11.2 °C 10.4 °C 1011.4 hPa North 6.4 km/h 16.1 km/h 95 % 0 mm 0 W/m2
04:55 11.2 °C 10.4 °C 1011.4 hPa North 4.8 km/h 12.9 km/h 95 % 0 mm 5 W/m2
05:00 11.2 °C 10.4 °C 1011.4 hPa North 3.2 km/h 12.9 km/h 95 % 0 mm 9 W/m2
05:05 11.2 °C 10.4 °C 1011.7 hPa North 3.2 km/h 12.9 km/h 95 % 0 mm 9 W/m2
05:10 11.2 °C 10.4 °C 1011.7 hPa North 4.8 km/h 14.5 km/h 95 % 0 mm 11 W/m2
05:15 11.2 °C 10.4 °C 1011.7 hPa North 4.8 km/h 14.5 km/h 95 % 0 mm 12 W/m2
05:17 11.2 °C 10.4 °C 1011.7 hPa North 6.4 km/h 14.5 km/h 95 % 0 mm 12 W/m2
05:22 11.2 °C 10.4 °C 1011.7 hPa North 6.4 km/h 14.5 km/h 95 % 0 mm 14 W/m2
05:27 11.2 °C 10.4 °C 1011.7 hPa North 8 km/h 14.5 km/h 95 % 0 mm 19 W/m2
05:32 11.3 °C 10.6 °C 1012.1 hPa NNW 6.4 km/h 14.5 km/h 95 % 0 mm 25 W/m2
05:37 11.3 °C 10.6 °C 1012.1 hPa NNW 8 km/h 14.5 km/h 95 % 0 mm 30 W/m2
05:42 11.3 °C 10.6 °C 1012.1 hPa North 8 km/h 14.5 km/h 95 % 0 mm 37 W/m2
05:47 11.3 °C 10.6 °C 1012.1 hPa North 8 km/h 16.1 km/h 95 % 0 mm 39 W/m2
05:52 11.3 °C 10.6 °C 1012.4 hPa NNW 8 km/h 16.1 km/h 95 % 0 mm 42 W/m2
05:57 11.3 °C 10.4 °C 1012.4 hPa NNW 8 km/h 17.7 km/h 94 % 0 mm 62 W/m2
05:59 11.3 °C 10.4 °C 1012.4 hPa NNW 9.7 km/h 17.7 km/h 94 % 0 mm 77 W/m2
06:04 11.4 °C 10.6 °C 1012.4 hPa NNW 9.7 km/h 17.7 km/h 95 % 0 mm 65 W/m2
06:09 11.4 °C 10.4 °C 1012.4 hPa NNW 8 km/h 17.7 km/h 94 % 0 mm 114 W/m2
06:14 11.5 °C 10.6 °C 1012.8 hPa NNW 9.7 km/h 17.7 km/h 94 % 0 mm 77 W/m2
06:19 11.6 °C 10.7 °C 1012.8 hPa NNW 9.7 km/h 19.3 km/h 94 % 0 mm 35 W/m2
06:24 11.7 °C 10.6 °C 1012.8 hPa NNW 8 km/h 19.3 km/h 93 % 0 mm 49 W/m2
06:29 11.8 °C 10.7 °C 1013.1 hPa North 6.4 km/h 17.7 km/h 93 % 0 mm 42 W/m2
06:34 11.8 °C 10.6 °C 1013.1 hPa NNW 6.4 km/h 14.5 km/h 92 % 0 mm 39 W/m2
06:39 11.8 °C 10.6 °C 1013.1 hPa North 6.4 km/h 14.5 km/h 92 % 0 mm 37 W/m2
06:44 11.8 °C 10.4 °C 1013.1 hPa North 8 km/h 17.7 km/h 91 % 0 mm 40 W/m2
06:49 11.8 °C 10.4 °C 1013.4 hPa North 9.7 km/h 19.3 km/h 91 % 0 mm 63 W/m2
06:54 11.8 °C 10.4 °C 1013.4 hPa North 9.7 km/h 19.3 km/h 91 % 0 mm 33 W/m2
06:59 11.9 °C 10.5 °C 1013.4 hPa NNW 11.3 km/h 19.3 km/h 91 % 0 mm 37 W/m2
07:04 11.9 °C 10.5 °C 1013.4 hPa NNW 9.7 km/h 17.7 km/h 91 % 0 mm 39 W/m2
07:09 11.9 °C 10.5 °C 1013.8 hPa North 9.7 km/h 24.1 km/h 91 % 0 mm 49 W/m2
07:14 12 °C 10.4 °C 1013.8 hPa North 11.3 km/h 24.1 km/h 90 % 0 mm 56 W/m2
07:19 12.1 °C 10.5 °C 1013.8 hPa North 9.7 km/h 19.3 km/h 90 % 0 mm 56 W/m2
07:24 12.3 °C 10.7 °C 1014.1 hPa North 9.7 km/h 19.3 km/h 90 % 0 mm 287 W/m2
07:29 12.6 °C 11 °C 1014.1 hPa North 8 km/h 17.7 km/h 90 % 0 mm 306 W/m2
07:34 12.8 °C 11.1 °C 1014.1 hPa North 8 km/h 17.7 km/h 89 % 0 mm 318 W/m2
07:39 13.2 °C 11.3 °C 1014.1 hPa North 8 km/h 17.7 km/h 88 % 0 mm 327 W/m2
07:44 13.3 °C 11 °C 1014.1 hPa North 9.7 km/h 24.1 km/h 86 % 0 mm 350 W/m2
07:49 13.3 °C 10.8 °C 1014.4 hPa North 11.3 km/h 24.1 km/h 85 % 0 mm 360 W/m2
07:54 13.6 °C 11.1 °C 1014.4 hPa North 11.3 km/h 20.9 km/h 85 % 0 mm 385 W/m2
07:59 13.8 °C 11.2 °C 1014.4 hPa North 11.3 km/h 20.9 km/h 84 % 0 mm 388 W/m2
08:04 13.8 °C 10.9 °C 1014.4 hPa North 12.9 km/h 25.7 km/h 83 % 0 mm 410 W/m2
08:09 13.9 °C 11.1 °C 1014.4 hPa North 12.9 km/h 25.7 km/h 83 % 0 mm 469 W/m2
08:14 14 °C 11 °C 1014.8 hPa North 12.9 km/h 24.1 km/h 82 % 0 mm 443 W/m2
08:19 14.1 °C 11.1 °C 1014.8 hPa North 12.9 km/h 24.1 km/h 82 % 0 mm 455 W/m2
08:24 14.2 °C 11 °C 1014.8 hPa NNE 12.9 km/h 24.1 km/h 81 % 0 mm 462 W/m2
08:29 14.1 °C 10.9 °C 1014.8 hPa NNE 12.9 km/h 24.1 km/h 81 % 0 mm 120 W/m2
08:34 14.1 °C 10.9 °C 1014.8 hPa NNE 11.3 km/h 20.9 km/h 81 % 0 mm 489 W/m2
08:39 14.4 °C 11.2 °C 1014.8 hPa NNE 8 km/h 16.1 km/h 81 % 0 mm 548 W/m2
08:44 14.6 °C 11 °C 1015.1 hPa NNE 9.7 km/h 24.1 km/h 79 % 0 mm 149 W/m2
08:49 14.5 °C 10.7 °C 1015.1 hPa North 11.3 km/h 24.1 km/h 78 % 0 mm 197 W/m2
08:55 14.4 °C 10.6 °C 1015.5 hPa North 9.7 km/h 19.3 km/h 78 % 0 mm 213 W/m2
09:00 14.3 °C 10.3 °C 1015.5 hPa NNE 11.3 km/h 24.1 km/h 77 % 0 mm 102 W/m2
09:05 14.2 °C 10.6 °C 1015.5 hPa NNE 11.3 km/h 24.1 km/h 79 % 0 mm 638 W/m2
09:10 14.4 °C 10.6 °C 1015.5 hPa NNE 9.7 km/h 20.9 km/h 78 % 0 mm 185 W/m2
09:15 14.6 °C 10.6 °C 1015.8 hPa NNE 9.7 km/h 22.5 km/h 77 % 0 mm 585 W/m2
09:20 14.8 °C 10.4 °C 1015.5 hPa NNE 11.3 km/h 24.1 km/h 75 % 0 mm 687 W/m2
09:25 15.2 °C 10.6 °C 1015.5 hPa North 12.9 km/h 24.1 km/h 74 % 0 mm 705 W/m2
09:30 15.4 °C 10.8 °C 1015.8 hPa North 12.9 km/h 24.1 km/h 74 % 0 mm 791 W/m2
09:35 15.7 °C 10.7 °C 1015.8 hPa North 12.9 km/h 25.7 km/h 72 % 0 mm 751 W/m2
09:40 15.9 °C 11.1 °C 1015.8 hPa North 9.7 km/h 25.7 km/h 73 % 0 mm 708 W/m2
09:45 16.2 °C 10.5 °C 1015.8 hPa NE 8 km/h 22.5 km/h 69 % 0 mm 860 W/m2
09:50 16.2 °C 10.7 °C 1016.1 hPa NNE 11.3 km/h 22.5 km/h 70 % 0 mm 183 W/m2
09:55 15.9 °C 10.4 °C 1016.1 hPa North 12.9 km/h 22.5 km/h 70 % 0 mm 195 W/m2
10:00 15.7 °C 10.7 °C 1016.1 hPa North 11.3 km/h 22.5 km/h 72 % 0 mm 283 W/m2
10:05 15.5 °C 10.7 °C 1016.1 hPa NNE 9.7 km/h 19.3 km/h 73 % 0 mm 780 W/m2
10:10 15.9 °C 11.1 °C 1016.1 hPa NNE 9.7 km/h 17.7 km/h 73 % 0 mm 889 W/m2
10:15 16.2 °C 10.9 °C 1016.1 hPa NNE 11.3 km/h 20.9 km/h 71 % 0 mm 846 W/m2
10:20 16.4 °C 10.7 °C 1016.1 hPa NNE 12.9 km/h 25.7 km/h 69 % 0 mm 868 W/m2
10:25 16.2 °C 10.3 °C 1016.1 hPa NNE 14.5 km/h 25.7 km/h 68 % 0 mm 185 W/m2
10:30 16.1 °C 10.8 °C 1016.5 hPa North 12.9 km/h 22.5 km/h 71 % 0 mm 791 W/m2
10:35 16.2 °C 10.5 °C 1016.5 hPa NNE 12.9 km/h 22.5 km/h 69 % 0 mm 779 W/m2
10:40 16.6 °C 10.2 °C 1016.5 hPa NNE 9.7 km/h 22.5 km/h 66 % 0 mm 172 W/m2
10:45 16.5 °C 9.9 °C 1016.5 hPa NNE 9.7 km/h 17.7 km/h 65 % 0 mm 156 W/m2
10:50 16.3 °C 10.4 °C 1016.5 hPa NNE 11.3 km/h 29 km/h 68 % 0 mm 886 W/m2
10:55 16.2 °C 10.3 °C 1016.5 hPa NNE 11.3 km/h 29 km/h 68 % 0 mm 287 W/m2
11:00 16.2 °C 10.3 °C 1016.8 hPa North 9.7 km/h 19.3 km/h 68 % 0 mm 214 W/m2
11:01 16.2 °C 10.3 °C 1016.8 hPa North 9.7 km/h 19.3 km/h 68 % 0 mm 155 W/m2
11:06 16.2 °C 10.5 °C 1016.8 hPa North 6.4 km/h 19.3 km/h 69 % 0 mm 926 W/m2
11:11 16.6 °C 10.2 °C 1016.8 hPa NE 3.2 km/h 12.9 km/h 66 % 0 mm 250 W/m2
11:16 16.7 °C 10.1 °C 1016.8 hPa NE 3.2 km/h 12.9 km/h 65 % 0 mm 229 W/m2
11:21 16.9 °C 10.3 °C 1016.8 hPa NNE 4.8 km/h 14.5 km/h 65 % 0 mm 916 W/m2
11:26 17.3 °C 10.9 °C 1016.8 hPa NE 4.8 km/h 14.5 km/h 66 % 0 mm 1088 W/m2
11:31 17.6 °C 10.2 °C 1016.8 hPa NE 6.4 km/h 17.7 km/h 62 % 0 mm 432 W/m2
11:36 17.7 °C 10.3 °C 1016.8 hPa NE 6.4 km/h 17.7 km/h 62 % 0 mm 311 W/m2
11:41 17.7 °C 10.3 °C 1016.8 hPa NNE 9.7 km/h 17.7 km/h 62 % 0 mm 951 W/m2
11:46 17.4 °C 10.1 °C 1016.8 hPa North 11.3 km/h 19.3 km/h 62 % 0 mm 956 W/m2
11:51 17.6 °C 10.4 °C 1016.8 hPa NNE 11.3 km/h 19.3 km/h 63 % 0 mm 1011 W/m2
11:56 17.8 °C 9.9 °C 1017.2 hPa North 9.7 km/h 19.3 km/h 60 % 0 mm 1102 W/m2
12:01 18.1 °C 10.2 °C 1017.2 hPa NNE 6.4 km/h 20.9 km/h 60 % 0 mm 236 W/m2
12:06 18 °C 10.1 °C 1017.2 hPa NNE 6.4 km/h 20.9 km/h 60 % 0 mm 308 W/m2
12:11 18.1 °C 10.4 °C 1017.2 hPa NNE 6.4 km/h 14.5 km/h 61 % 0 mm 863 W/m2
12:16 18 °C 10.1 °C 1017.5 hPa NNE 8 km/h 14.5 km/h 60 % 0 mm 986 W/m2
12:21 18.2 °C 10.3 °C 1017.2 hPa NE 6.4 km/h 14.5 km/h 60 % 0 mm 1106 W/m2
12:26 18.5 °C 10.1 °C 1017.2 hPa ENE 6.4 km/h 17.7 km/h 58 % 0 mm 220 W/m2
12:32 18.7 °C 10.3 °C 1017.2 hPa NE 6.4 km/h 17.7 km/h 58 % 0 mm 290 W/m2
12:36 18.7 °C 9.7 °C 1017.2 hPa NNE 6.4 km/h 14.5 km/h 56 % 0 mm 292 W/m2
12:42 18.4 °C 10 °C 1017.5 hPa NE 6.4 km/h 14.5 km/h 58 % 0 mm 1129 W/m2
12:47 18.7 °C 10 °C 1017.5 hPa NNE 6.4 km/h 14.5 km/h 57 % 0 mm 279 W/m2
12:52 18.6 °C 9.7 °C 1017.5 hPa NNE 9.7 km/h 20.9 km/h 56 % 0 mm 262 W/m2
12:57 18.5 °C 10.1 °C 1017.8 hPa NNE 8 km/h 20.9 km/h 58 % 0 mm 1018 W/m2
13:02 18.8 °C 9.8 °C 1017.8 hPa NNE 4.8 km/h 12.9 km/h 56 % 0 mm 1079 W/m2
13:07 19.2 °C 10.4 °C 1017.8 hPa North 6.4 km/h 14.5 km/h 57 % 0 mm 371 W/m2
13:12 19.1 °C 9.8 °C 1017.8 hPa North 6.4 km/h 14.5 km/h 55 % 0 mm 304 W/m2
13:17 18.9 °C 10.2 °C 1018.2 hPa NNE 8 km/h 22.5 km/h 57 % 0 mm 269 W/m2
13:22 18.7 °C 9.7 °C 1018.2 hPa NE 6.4 km/h 22.5 km/h 56 % 0 mm 227 W/m2
13:27 18.7 °C 10.3 °C 1018.2 hPa North 8 km/h 19.3 km/h 58 % 0 mm 1048 W/m2
13:32 18.9 °C 10.2 °C 1018.2 hPa NNE 9.7 km/h 19.3 km/h 57 % 0 mm 1092 W/m2
13:37 19.2 °C 9.7 °C 1018.2 hPa ENE 6.4 km/h 14.5 km/h 54 % 0 mm 343 W/m2
13:42 19.2 °C 9.9 °C 1018.2 hPa NE 6.4 km/h 19.3 km/h 55 % 0 mm 315 W/m2
13:47 19.1 °C 9.6 °C 1018.2 hPa NNE 9.7 km/h 20.9 km/h 54 % 0 mm 388 W/m2
13:52 19.4 °C 10.4 °C 1018.5 hPa NNE 8 km/h 20.9 km/h 56 % 0 mm 1058 W/m2
13:57 19.6 °C 10.6 °C 1018.5 hPa NE 8 km/h 19.3 km/h 56 % 0 mm 1111 W/m2
14:02 19.6 °C 9.4 °C 1018.5 hPa ENE 8 km/h 19.3 km/h 52 % 0 mm 417 W/m2
14:07 19.5 °C 9.9 °C 1018.5 hPa ENE 8 km/h 16.1 km/h 54 % 0 mm 394 W/m2
14:12 19.3 °C 9.2 °C 1018.8 hPa NE 11.3 km/h 24.1 km/h 52 % 0 mm 345 W/m2
14:17 19.2 °C 9.1 °C 1018.8 hPa NNE 11.3 km/h 24.1 km/h 52 % 0 mm 330 W/m2
14:22 19.2 °C 9.7 °C 1018.8 hPa North 9.7 km/h 17.7 km/h 54 % 0 mm 413 W/m2
14:27 19.2 °C 9.7 °C 1018.8 hPa North 8 km/h 16.1 km/h 54 % 0 mm 506 W/m2
14:32 19.2 °C 9.4 °C 1019.2 hPa NNE 9.7 km/h 20.9 km/h 53 % 0 mm 403 W/m2
14:37 19.1 °C 9 °C 1019.2 hPa North 9.7 km/h 20.9 km/h 52 % 0 mm 417 W/m2
14:42 19.2 °C 9.7 °C 1019.2 hPa North 8 km/h 20.9 km/h 54 % 0 mm 417 W/m2
14:47 19.4 °C 9.8 °C 1019.2 hPa NNW 8 km/h 20.9 km/h 54 % 0 mm 448 W/m2
14:52 19.7 °C 10.4 °C 1019.2 hPa North 6.4 km/h 14.5 km/h 55 % 0 mm 422 W/m2
14:57 19.9 °C 10.6 °C 1019.2 hPa North 8 km/h 20.9 km/h 55 % 0 mm 629 W/m2
15:02 20 °C 9.8 °C 1019.2 hPa NNE 8 km/h 20.9 km/h 52 % 0 mm 367 W/m2
15:08 19.7 °C 9.6 °C 1019.5 hPa NE 8 km/h 17.7 km/h 52 % 0 mm 306 W/m2
15:13 19.4 °C 9 °C 1019.5 hPa NNE 8 km/h 14.5 km/h 51 % 0 mm 348 W/m2
15:18 19.2 °C 9.1 °C 1019.5 hPa NNE 8 km/h 14.5 km/h 52 % 0 mm 329 W/m2
15:23 19.2 °C 9.9 °C 1019.5 hPa ESE 4.8 km/h 14.5 km/h 55 % 0 mm 478 W/m2
15:28 19.3 °C 9.5 °C 1019.5 hPa East 4.8 km/h 16.1 km/h 53 % 0 mm 362 W/m2
15:33 19.2 °C 9.1 °C 1019.5 hPa ENE 6.4 km/h 16.1 km/h 52 % 0 mm 295 W/m2
15:38 19.2 °C 8.2 °C 1019.5 hPa NE 8 km/h 16.1 km/h 49 % 0 mm 288 W/m2
15:43 19.1 °C 9 °C 1019.5 hPa NNE 6.4 km/h 14.5 km/h 52 % 0 mm 327 W/m2
15:48 19.4 °C 9.3 °C 1019.5 hPa NNE 6.4 km/h 17.7 km/h 52 % 0 mm 327 W/m2
15:53 19.8 °C 9.1 °C 1019.5 hPa North 6.4 km/h 17.7 km/h 50 % 0 mm 469 W/m2
15:58 20.1 °C 9.1 °C 1019.9 hPa North 4.8 km/h 14.5 km/h 49 % 0 mm 958 W/m2
16:03 20.3 °C 8.9 °C 1019.9 hPa NNE 6.4 km/h 16.1 km/h 48 % 0 mm 891 W/m2
16:08 20.5 °C 9.4 °C 1019.9 hPa NNE 6.4 km/h 16.1 km/h 49 % 0 mm 895 W/m2
16:13 20.7 °C 9.9 °C 1019.9 hPa NE 3.2 km/h 12.9 km/h 50 % 0 mm 299 W/m2
16:18 20.7 °C 9.3 °C 1019.9 hPa NNE 3.2 km/h 11.3 km/h 48 % 0 mm 274 W/m2
16:23 20.4 °C 9.6 °C 1019.9 hPa NE 3.2 km/h 12.9 km/h 50 % 0 mm 304 W/m2
16:28 20.2 °C 9.4 °C 1019.9 hPa ENE 4.8 km/h 12.9 km/h 50 % 0 mm 279 W/m2
16:33 19.9 °C 9.2 °C 1019.9 hPa ENE 6.4 km/h 16.1 km/h 50 % 0 mm 236 W/m2
16:38 19.8 °C 9.1 °C 1019.9 hPa East 6.4 km/h 16.1 km/h 50 % 0 mm 221 W/m2
16:43 19.7 °C 9.6 °C 1019.9 hPa ENE 4.8 km/h 9.7 km/h 52 % 0 mm 297 W/m2
16:48 19.8 °C 9.4 °C 1019.9 hPa ENE 3.2 km/h 9.7 km/h 51 % 0 mm 285 W/m2
16:53 19.9 °C 9.2 °C 1019.9 hPa East 3.2 km/h 9.7 km/h 50 % 0 mm 482 W/m2
16:54 19.9 °C 9.2 °C 1019.9 hPa East 3.2 km/h 9.7 km/h 50 % 0 mm 341 W/m2
16:59 19.8 °C 9.1 °C 1019.9 hPa East 3.2 km/h 9.7 km/h 50 % 0 mm 213 W/m2
17:04 19.9 °C 9.2 °C 1019.9 hPa East 1.6 km/h 8 km/h 50 % 0 mm 306 W/m2
17:09 19.9 °C 9.4 °C 1019.9 hPa SE 3.2 km/h 9.7 km/h 51 % 0 mm 744 W/m2
17:14 19.9 °C 9.2 °C 1019.9 hPa SE 3.2 km/h 9.7 km/h 50 % 0 mm 276 W/m2
17:19 19.9 °C 9.2 °C 1019.9 hPa ESE 1.6 km/h 6.4 km/h 50 % 0 mm 285 W/m2
17:24 20.1 °C 9.3 °C 1019.9 hPa SSE 1.6 km/h 8 km/h 50 % 0 mm 288 W/m2
17:29 20.1 °C 9.3 °C 1019.9 hPa South 3.2 km/h 8 km/h 50 % 0 mm 299 W/m2
17:34 20.2 °C 9.4 °C 1019.9 hPa South 3.2 km/h 8 km/h 50 % 0 mm 279 W/m2
17:39 20.2 °C 9.2 °C 1019.9 hPa SSE 3.2 km/h 11.3 km/h 49 % 0 mm 218 W/m2
17:44 20.1 °C 9.1 °C 1019.9 hPa East 3.2 km/h 11.3 km/h 49 % 0 mm 225 W/m2
17:50 20 °C 8.9 °C 1019.9 hPa East 3.2 km/h 8 km/h 49 % 0 mm 185 W/m2
17:54 19.9 °C 8.6 °C 1019.9 hPa East 1.6 km/h 8 km/h 48 % 0 mm 176 W/m2
18:00 19.8 °C 9.1 °C 1020.2 hPa Calm   3.2 km/h 50 % 0 mm 192 W/m2
18:05 19.7 °C 8.4 °C 1020.2 hPa Calm   3.2 km/h 48 % 0 mm 216 W/m2
18:10 19.7 °C 9 °C 1020.2 hPa South 1.6 km/h 6.4 km/h 50 % 0 mm 229 W/m2
18:15 19.7 °C 9 °C 1020.2 hPa SW 3.2 km/h 8 km/h 50 % 0 mm 251 W/m2
18:20 19.8 °C 9.1 °C 1020.2 hPa SW 3.2 km/h 8 km/h 50 % 0 mm 441 W/m2
18:25 20 °C 8.7 °C 1020.2 hPa SW 1.6 km/h 6.4 km/h 48 % 0 mm 503 W/m2
18:30 20.2 °C 8.8 °C 1020.2 hPa SW 1.6 km/h 8 km/h 48 % 0 mm 434 W/m2
18:35 20.4 °C 9.3 °C 1020.2 hPa SW 1.6 km/h 8 km/h 49 % 0 mm 381 W/m2
18:40 20.7 °C 9.3 °C 1020.2 hPa ESE 4.8 km/h 17.7 km/h 48 % 0 mm 334 W/m2
18:41 20.7 °C 9.3 °C 1020.2 hPa ESE 4.8 km/h 17.7 km/h 48 % 0 mm 229 W/m2
18:46 20.6 °C 9.5 °C 1020.2 hPa ESE 6.4 km/h 17.7 km/h 49 % 0 mm 151 W/m2
18:51 20.3 °C 9.2 °C 1020.5 hPa East 8 km/h 12.9 km/h 49 % 0 mm 83 W/m2
18:56 20.1 °C 9.7 °C 1020.5 hPa East 4.8 km/h 11.3 km/h 51 % 0 mm 116 W/m2
19:01 19.8 °C 9.4 °C 1020.5 hPa East 6.4 km/h 14.5 km/h 51 % 0 mm 74 W/m2
19:06 19.4 °C 9.3 °C 1020.5 hPa East 6.4 km/h 14.5 km/h 52 % 0 mm 69 W/m2
19:11 19.3 °C 9.2 °C 1020.5 hPa East 6.4 km/h 11.3 km/h 52 % 0 mm 244 W/m2
19:16 19.2 °C 9.1 °C 1020.2 hPa East 4.8 km/h 11.3 km/h 52 % 0 mm 225 W/m2
19:21 19.3 °C 9.5 °C 1020.5 hPa ESE 4.8 km/h 11.3 km/h 53 % 0 mm 209 W/m2
19:22 19.3 °C 9.5 °C 1020.5 hPa ESE 4.8 km/h 11.3 km/h 53 % 0 mm 207 W/m2
19:27 19.3 °C 9.2 °C 1020.5 hPa SE 6.4 km/h 14.5 km/h 52 % 0 mm 153 W/m2
19:32 19.3 °C 9.2 °C 1020.5 hPa SE 6.4 km/h 14.5 km/h 52 % 0 mm 181 W/m2
19:37 19.3 °C 9.2 °C 1020.5 hPa SE 4.8 km/h 9.7 km/h 52 % 0 mm 81 W/m2
19:42 19.3 °C 9.8 °C 1020.5 hPa SE 4.8 km/h 9.7 km/h 54 % 0 mm 53 W/m2
19:47 19.2 °C 9.4 °C 1020.5 hPa SE 3.2 km/h 8 km/h 53 % 0 mm 49 W/m2
19:52 19.1 °C 9.8 °C 1020.5 hPa SE 3.2 km/h 9.7 km/h 55 % 0 mm 49 W/m2
19:57 18.8 °C 9.8 °C 1020.5 hPa SE 3.2 km/h 9.7 km/h 56 % 0 mm 40 W/m2
20:02 18.7 °C 9.7 °C 1020.5 hPa ESE 3.2 km/h 9.7 km/h 56 % 0 mm 40 W/m2
20:07 18.5 °C 9.6 °C 1020.9 hPa SE 4.8 km/h 11.3 km/h 56 % 0 mm 42 W/m2
20:13 18.4 °C 10 °C 1020.5 hPa SSE 4.8 km/h 11.3 km/h 58 % 0 mm 37 W/m2
20:18 18.3 °C 9.9 °C 1020.9 hPa SSE 3.2 km/h 11.3 km/h 58 % 0 mm 35 W/m2
20:23 18.1 °C 9.9 °C 1020.9 hPa SSE 4.8 km/h 11.3 km/h 59 % 0 mm 37 W/m2
20:28 18 °C 9.9 °C 1020.9 hPa SSE 6.4 km/h 12.9 km/h 59 % 0 mm 33 W/m2
20:33 17.9 °C 10 °C 1020.9 hPa SSE 3.2 km/h 12.9 km/h 60 % 0 mm 28 W/m2
20:38 17.8 °C 10.2 °C 1020.9 hPa SSE 1.6 km/h 6.4 km/h 61 % 0 mm 26 W/m2
20:43 17.6 °C 10 °C 1020.9 hPa SSE 1.6 km/h 8 km/h 61 % 0 mm 21 W/m2
20:48 17.5 °C 10.4 °C 1020.9 hPa SSE 1.6 km/h 8 km/h 63 % 0 mm 21 W/m2
20:53 17.3 °C 10.4 °C 1020.9 hPa SSE 1.6 km/h 9.7 km/h 64 % 0 mm 18 W/m2
20:58 17.2 °C 10.3 °C 1020.9 hPa SSE 3.2 km/h 9.7 km/h 64 % 0 mm 16 W/m2
21:03 17.1 °C 10.4 °C 1020.9 hPa South 3.2 km/h 8 km/h 65 % 0 mm 14 W/m2
21:08 16.9 °C 10.3 °C 1020.9 hPa South 3.2 km/h 8 km/h 65 % 0 mm 12 W/m2
21:13 16.7 °C 10.1 °C 1020.9 hPa South 3.2 km/h 8 km/h 65 % 0 mm 12 W/m2
21:18 16.6 °C 10.2 °C 1020.9 hPa South 1.6 km/h 8 km/h 66 % 0 mm 11 W/m2
21:23 16.4 °C 10.3 °C 1020.9 hPa South 1.6 km/h 6.4 km/h 67 % 0 mm 7 W/m2
21:28 16.2 °C 10.1 °C 1021.2 hPa South 3.2 km/h 8 km/h 67 % 0 mm 5 W/m2
21:33 16.1 °C 10.2 °C 1021.2 hPa South 1.6 km/h 8 km/h 68 % 0 mm 5 W/m2
21:38 15.9 °C 10.2 °C 1021.2 hPa South 1.6 km/h 6.4 km/h 69 % 0 mm 0 W/m2
21:43 15.7 °C 10 °C 1021.2 hPa South 1.6 km/h 6.4 km/h 69 % 0 mm 0 W/m2
21:48 15.6 °C 10.2 °C 1021.2 hPa South 1.6 km/h 6.4 km/h 70 % 0 mm 0 W/m2
21:53 15.4 °C 9.9 °C 1021.2 hPa South 1.6 km/h 6.4 km/h 70 % 0 mm 0 W/m2
21:58 15.4 °C 9.9 °C 1021.2 hPa SSE 1.6 km/h 8 km/h 70 % 0 mm 0 W/m2
22:03 15.4 °C 9.9 °C 1021.2 hPa SSE 4.8 km/h 9.7 km/h 70 % 0 mm 0 W/m2
22:08 15.4 °C 9.9 °C 1021.2 hPa SSE 6.4 km/h 11.3 km/h 70 % 0 mm 0 W/m2
22:13 15.4 °C 9.9 °C 1021.2 hPa SE 6.4 km/h 11.3 km/h 70 % 0 mm 0 W/m2
22:18 15.4 °C 9.9 °C 1021.2 hPa SE 6.4 km/h 11.3 km/h 70 % 0 mm 0 W/m2
22:23 15.4 °C 9.9 °C 1021.6 hPa SE 6.4 km/h 11.3 km/h 70 % 0 mm 0 W/m2
22:28 15.4 °C 9.9 °C 1021.6 hPa SE 4.8 km/h 11.3 km/h 70 % 0 mm 0 W/m2
22:33 15.3 °C 10.1 °C 1021.6 hPa ESE 4.8 km/h 11.3 km/h 71 % 0 mm 0 W/m2
22:38 15.1 °C 10.1 °C 1021.6 hPa ESE 6.4 km/h 11.3 km/h 72 % 0 mm 0 W/m2
22:43 15.1 °C 10.1 °C 1021.6 hPa ESE 4.8 km/h 11.3 km/h 72 % 0 mm 0 W/m2
22:48 14.9 °C 10.1 °C 1021.6 hPa ESE 4.8 km/h 12.9 km/h 73 % 0 mm 0 W/m2
22:53 14.9 °C 10.1 °C 1021.6 hPa ESE 4.8 km/h 12.9 km/h 73 % 0 mm 0 W/m2
22:58 14.8 °C 10 °C 1021.6 hPa SE 4.8 km/h 12.9 km/h 73 % 0 mm 0 W/m2
23:03 14.8 °C 10 °C 1021.6 hPa SE 6.4 km/h 16.1 km/h 73 % 0 mm 0 W/m2
23:08 14.7 °C 10.1 °C 1021.9 hPa SE 8 km/h 16.1 km/h 74 % 0 mm 0 W/m2
23:13 14.6 °C 10.2 °C 1021.9 hPa SE 8 km/h 16.1 km/h 75 % 0 mm 0 W/m2
23:18 14.5 °C 10.1 °C 1021.9 hPa SE 9.7 km/h 16.1 km/h 75 % 0 mm 0 W/m2
23:23 14.4 °C 10.2 °C 1021.9 hPa SE 9.7 km/h 16.1 km/h 76 % 0 mm 0 W/m2
23:28 14.3 °C 10.1 °C 1021.9 hPa SE 8 km/h 16.1 km/h 76 % 0 mm 0 W/m2
23:33 14.2 °C 10.2 °C 1021.9 hPa SE 6.4 km/h 14.5 km/h 77 % 0 mm 0 W/m2
23:38 14.1 °C 10.1 °C 1021.9 hPa SSE 6.4 km/h 14.5 km/h 77 % 0 mm 0 W/m2
23:44 14.1 °C 10.1 °C 1021.9 hPa SSE 4.8 km/h 14.5 km/h 77 % 0 mm 0 W/m2
23:49 14 °C 10.1 °C 1021.9 hPa SSE 4.8 km/h 9.7 km/h 77 % 0 mm 0 W/m2
23:53 14 °C 10.2 °C 1021.9 hPa South 4.8 km/h 12.9 km/h 78 % 0 mm 0 W/m2
23:59 14 °C 10.2 °C 1021.9 hPa SSW 3.2 km/h 12.9 km/h 78 % 0 mm 0 W/m2
Delerius-Weather
Compliments of Weather Underground - 2.25 mb

Data updates at regular intervals.